createdAt,value
2023-05-05T00:01:34.225Z,12.44
2023-05-05T00:04:01.387Z,12.42
2023-05-05T00:06:29.119Z,12.40
2023-05-05T00:08:56.400Z,12.39
2023-05-05T00:11:23.743Z,12.37
2023-05-05T00:13:51.622Z,12.36
2023-05-05T00:16:18.906Z,12.34
2023-05-05T00:18:46.133Z,12.34
2023-05-05T00:21:13.321Z,12.32
2023-05-05T00:23:40.482Z,12.29
2023-05-05T00:26:07.932Z,12.27
2023-05-05T00:28:35.102Z,12.26
2023-05-05T00:31:02.327Z,12.25
2023-05-05T00:33:29.582Z,12.24
2023-05-05T00:35:56.766Z,12.23
2023-05-05T00:38:23.828Z,12.23
2023-05-05T00:40:50.977Z,12.21
2023-05-05T00:43:18.149Z,12.18
2023-05-05T00:45:47.930Z,12.13
2023-05-05T00:48:17.103Z,12.12
2023-05-05T00:50:45.336Z,12.12
2023-05-05T00:53:13.329Z,12.12
2023-05-05T00:55:40.735Z,12.12
2023-05-05T00:58:08.225Z,12.12
2023-05-05T01:00:35.378Z,12.12
2023-05-05T01:03:03.375Z,12.12
2023-05-05T01:05:48.061Z,12.11
2023-05-05T01:08:46.970Z,12.10
2023-05-05T01:11:27.228Z,12.08
2023-05-05T01:14:06.192Z,12.07
2023-05-05T01:16:34.795Z,12.05
2023-05-05T01:19:39.775Z,12.05
2023-05-05T01:22:12.000Z,12.06
2023-05-05T01:24:49.563Z,12.05
2023-05-05T01:27:35.521Z,12.05
2023-05-05T01:30:18.270Z,12.04
2023-05-05T01:32:52.122Z,12.04
2023-05-05T01:35:26.026Z,12.01
2023-05-05T01:38:13.500Z,12.00
2023-05-05T01:40:45.269Z,11.99
2023-05-05T01:43:15.391Z,11.97
2023-05-05T01:45:45.141Z,11.96
2023-05-05T01:48:13.810Z,11.94
2023-05-05T01:50:44.207Z,11.93
2023-05-05T01:53:12.133Z,11.93
2023-05-05T01:55:40.793Z,11.93
2023-05-05T01:58:09.701Z,11.91
2023-05-05T02:00:38.725Z,11.90
2023-05-05T02:03:08.605Z,11.89
2023-05-05T02:05:39.057Z,11.87
2023-05-05T02:08:08.907Z,11.85
2023-05-05T02:10:41.031Z,11.81
2023-05-05T02:13:10.682Z,11.80
2023-05-05T02:15:39.505Z,11.80
2023-05-05T02:18:07.615Z,11.79
2023-05-05T02:20:37.664Z,11.77
2023-05-05T02:23:06.555Z,11.77
2023-05-05T02:25:49.080Z,11.75
2023-05-05T02:28:21.876Z,11.72
2023-05-05T02:30:59.987Z,11.70
2023-05-05T02:33:32.714Z,11.68
2023-05-05T02:36:10.551Z,11.67
2023-05-05T02:38:44.109Z,11.66
2023-05-05T02:41:16.790Z,11.65
2023-05-05T02:43:48.704Z,11.65
2023-05-05T02:46:17.957Z,11.64
2023-05-05T02:48:46.369Z,11.63
2023-05-05T02:51:13.589Z,11.63
2023-05-05T02:53:41.235Z,11.62
2023-05-05T02:56:20.286Z,11.62
2023-05-05T02:58:51.307Z,11.60
2023-05-05T03:01:51.195Z,11.58
2023-05-05T03:04:28.094Z,11.57
2023-05-05T03:06:59.602Z,11.54
2023-05-05T03:09:39.977Z,11.53
2023-05-05T03:12:10.763Z,11.50
2023-05-05T03:14:48.806Z,11.50
2023-05-05T03:17:18.584Z,11.50
2023-05-05T03:19:47.175Z,11.50
2023-05-05T03:22:14.908Z,11.50
2023-05-05T03:24:49.872Z,11.50
2023-05-05T03:27:17.688Z,11.50
2023-05-05T03:29:44.813Z,11.50
2023-05-05T03:32:13.676Z,11.48
2023-05-05T03:34:41.314Z,11.44
2023-05-05T03:37:09.092Z,11.43
2023-05-05T03:39:36.841Z,11.40
2023-05-05T03:42:04.081Z,11.38
2023-05-05T03:44:32.504Z,11.38
2023-05-05T03:46:59.744Z,11.37
2023-05-05T03:49:27.215Z,11.37
2023-05-05T03:51:54.633Z,11.38
2023-05-05T03:54:21.851Z,11.37
2023-05-05T03:56:48.994Z,11.35
2023-05-05T03:59:16.190Z,11.34
2023-05-05T04:01:45.209Z,11.33
2023-05-05T04:04:12.519Z,11.32
2023-05-05T04:06:39.872Z,11.31
2023-05-05T04:09:07.329Z,11.30
2023-05-05T04:11:34.602Z,11.28
2023-05-05T04:14:02.153Z,11.27
2023-05-05T04:16:29.710Z,11.26
2023-05-05T04:18:58.024Z,11.25
2023-05-05T04:21:25.241Z,11.26
2023-05-05T04:23:52.937Z,11.27
2023-05-05T04:26:21.112Z,11.27
2023-05-05T04:28:49.570Z,11.27
2023-05-05T04:31:17.155Z,11.28
2023-05-05T04:33:44.547Z,11.28
2023-05-05T04:36:12.110Z,11.29
2023-05-05T04:38:39.336Z,11.29
2023-05-05T04:41:06.857Z,11.29
2023-05-05T04:43:35.155Z,11.29
2023-05-05T04:46:03.133Z,11.30
2023-05-05T04:48:31.737Z,11.31
2023-05-05T04:50:58.856Z,11.32
2023-05-05T04:53:26.021Z,11.33
2023-05-05T04:55:53.548Z,11.33
2023-05-05T04:58:20.827Z,11.33
2023-05-05T05:00:47.977Z,11.34
2023-05-05T05:03:15.197Z,11.34
2023-05-05T05:05:42.350Z,11.36
2023-05-05T05:08:09.404Z,11.34
2023-05-05T05:10:36.960Z,11.33
2023-05-05T05:13:04.067Z,11.33
2023-05-05T05:15:31.301Z,11.33
2023-05-05T05:17:58.498Z,11.33
2023-05-05T05:20:25.796Z,11.34
2023-05-05T05:22:52.989Z,11.36
2023-05-05T05:25:20.776Z,11.34
2023-05-05T05:27:55.331Z,11.34
2023-05-05T05:30:33.947Z,11.33
2023-05-05T05:33:02.299Z,11.30
2023-05-05T05:35:30.144Z,11.29
2023-05-05T05:37:57.405Z,11.27
2023-05-05T05:40:25.517Z,11.26
2023-05-05T05:42:52.654Z,11.27
2023-05-05T05:45:19.875Z,11.26
2023-05-05T05:47:47.213Z,11.25
2023-05-05T05:50:14.926Z,11.26
2023-05-05T05:52:42.620Z,11.26
2023-05-05T05:55:10.233Z,11.26
2023-05-05T05:57:37.455Z,11.24
2023-05-05T06:00:06.344Z,11.23
2023-05-05T06:02:39.256Z,11.25
2023-05-05T06:05:08.980Z,11.27
2023-05-05T06:07:36.372Z,11.29
2023-05-05T06:10:18.571Z,11.30
2023-05-05T06:12:51.290Z,11.30
2023-05-05T06:15:18.819Z,11.30
2023-05-05T06:17:46.222Z,11.30
2023-05-05T06:20:13.998Z,11.29
2023-05-05T06:22:41.417Z,11.29
2023-05-05T06:25:09.158Z,11.30
2023-05-05T06:27:37.251Z,11.32
2023-05-05T06:30:04.884Z,11.37
2023-05-05T06:32:32.030Z,11.39
2023-05-05T06:34:59.172Z,11.41
2023-05-05T06:37:26.478Z,11.43
2023-05-05T06:39:53.616Z,11.45
2023-05-05T06:42:20.610Z,11.45
2023-05-05T06:44:47.770Z,11.44
2023-05-05T06:47:15.020Z,11.44
2023-05-05T06:49:42.213Z,11.44
2023-05-05T06:52:09.419Z,11.42
2023-05-05T06:54:36.569Z,11.41
2023-05-05T06:57:03.865Z,11.41
2023-05-05T06:59:30.924Z,11.39
2023-05-05T07:01:58.027Z,11.39
2023-05-05T07:04:25.154Z,11.38
2023-05-05T07:06:52.325Z,11.37
2023-05-05T07:09:20.380Z,11.37
2023-05-05T07:11:47.524Z,11.37
2023-05-05T07:14:14.640Z,11.37
2023-05-05T07:16:41.876Z,11.36
2023-05-05T07:19:08.999Z,11.36
2023-05-05T07:21:36.751Z,11.36
2023-05-05T07:24:04.186Z,11.37
2023-05-05T07:26:31.891Z,11.39
2023-05-05T07:28:59.236Z,11.41
2023-05-05T07:31:26.778Z,11.43
2023-05-05T07:33:54.062Z,11.46
2023-05-05T07:36:21.333Z,11.48
2023-05-05T07:38:48.523Z,11.51
2023-05-05T07:41:15.948Z,11.54
2023-05-05T07:43:44.657Z,11.56
2023-05-05T07:46:12.561Z,11.55
2023-05-05T07:48:41.504Z,11.52
2023-05-05T07:51:09.404Z,11.49
2023-05-05T07:53:37.211Z,11.48
2023-05-05T07:56:04.369Z,11.48
2023-05-05T07:58:31.523Z,11.49
2023-05-05T08:00:58.744Z,11.47
2023-05-05T08:03:26.015Z,11.44
2023-05-05T08:05:54.677Z,11.42
2023-05-05T08:08:25.104Z,11.42
2023-05-05T08:10:53.355Z,11.41
2023-05-05T08:13:20.767Z,11.40
2023-05-05T08:15:47.966Z,11.39
2023-05-05T08:18:15.199Z,11.39
2023-05-05T08:20:42.419Z,11.41
2023-05-05T08:23:09.526Z,11.43
2023-05-05T08:25:36.876Z,11.47
2023-05-05T08:28:03.988Z,11.50
2023-05-05T08:30:31.400Z,11.54
2023-05-05T08:32:59.130Z,11.59
2023-05-05T08:35:26.382Z,11.63
2023-05-05T08:37:53.524Z,11.65
2023-05-05T08:40:25.156Z,11.65
2023-05-05T08:42:52.156Z,11.68
2023-05-05T08:45:19.302Z,11.72
2023-05-05T08:47:46.380Z,11.75
2023-05-05T08:50:14.258Z,11.76
2023-05-05T08:52:45.951Z,11.80
2023-05-05T08:55:34.972Z,11.87
2023-05-05T08:58:05.243Z,11.95
2023-05-05T09:00:33.394Z,12.03
2023-05-05T09:03:01.616Z,12.13
2023-05-05T09:05:28.955Z,12.25
2023-05-05T09:07:56.068Z,12.35
2023-05-05T09:10:25.555Z,12.46
2023-05-05T09:12:52.782Z,12.60
2023-05-05T09:15:19.902Z,12.76
2023-05-05T09:17:47.190Z,12.94
2023-05-05T09:20:15.342Z,13.10
2023-05-05T09:22:45.038Z,13.26
2023-05-05T09:25:14.421Z,13.36
2023-05-05T09:27:47.953Z,13.45
2023-05-05T09:30:17.112Z,13.54
2023-05-05T09:32:46.604Z,13.62
2023-05-05T09:35:14.524Z,13.66
2023-05-05T09:37:42.488Z,13.68
2023-05-05T09:40:10.588Z,13.70
2023-05-05T09:42:38.810Z,13.74
2023-05-05T09:45:18.011Z,13.79
2023-05-05T09:47:48.837Z,13.84
2023-05-05T09:50:18.974Z,13.80
2023-05-05T09:53:00.775Z,13.79
2023-05-05T09:55:29.002Z,13.77
2023-05-05T09:57:56.344Z,13.76
2023-05-05T10:00:38.569Z,13.75
2023-05-05T10:03:05.979Z,13.76
2023-05-05T10:05:33.170Z,13.79
2023-05-05T10:08:13.595Z,13.84
2023-05-05T10:11:03.019Z,13.87
2023-05-05T10:13:35.581Z,13.91
2023-05-05T10:16:04.539Z,13.93
2023-05-05T10:18:32.672Z,13.93
2023-05-05T10:21:01.824Z,13.94
2023-05-05T10:23:39.604Z,13.94
2023-05-05T10:26:08.448Z,13.96
2023-05-05T10:28:45.968Z,13.97
2023-05-05T10:31:41.740Z,13.96
2023-05-05T10:34:21.468Z,13.96
2023-05-05T10:36:49.702Z,13.98
2023-05-05T10:39:19.949Z,13.98
2023-05-05T10:41:48.322Z,13.97
2023-05-05T10:44:16.351Z,13.93
2023-05-05T10:46:45.067Z,13.90
2023-05-05T10:49:41.558Z,13.88
2023-05-05T10:52:28.823Z,13.89
2023-05-05T10:55:11.616Z,13.94
2023-05-05T10:57:41.838Z,14.01
2023-05-05T11:00:10.298Z,14.06
2023-05-05T11:02:37.751Z,14.11
2023-05-05T11:05:17.793Z,14.15
2023-05-05T11:07:46.624Z,14.19
2023-05-05T11:10:15.342Z,14.21
2023-05-05T11:13:02.657Z,14.22
2023-05-05T11:15:30.407Z,14.23
2023-05-05T11:18:05.862Z,14.22
2023-05-05T11:20:37.695Z,14.22
2023-05-05T11:23:05.394Z,14.23
2023-05-05T11:25:42.231Z,14.24
2023-05-05T11:28:21.288Z,14.26
2023-05-05T11:30:58.730Z,14.31
2023-05-05T11:33:31.284Z,14.39
2023-05-05T11:35:58.447Z,14.48
2023-05-05T11:38:50.019Z,14.52
2023-05-05T11:41:32.739Z,14.52
2023-05-05T11:44:16.032Z,14.47
2023-05-05T11:46:54.596Z,14.43
2023-05-05T11:49:29.695Z,14.39
2023-05-05T11:52:11.224Z,14.33
2023-05-05T11:54:47.943Z,14.29
2023-05-05T11:57:17.680Z,14.25
2023-05-05T11:59:53.648Z,14.23
2023-05-05T12:02:21.949Z,14.19
2023-05-05T12:04:50.681Z,14.16
2023-05-05T12:07:20.239Z,14.18
2023-05-05T12:09:48.423Z,14.20
2023-05-05T12:12:16.279Z,14.26
2023-05-05T12:14:52.617Z,14.38
2023-05-05T12:17:21.050Z,14.60
2023-05-05T12:19:52.070Z,14.78
2023-05-05T12:22:24.616Z,14.89
2023-05-05T12:24:59.364Z,14.94
2023-05-05T12:27:28.170Z,15.00
2023-05-05T12:29:57.345Z,15.04
2023-05-05T12:32:25.815Z,15.06
2023-05-05T12:34:54.734Z,15.06
2023-05-05T12:37:22.632Z,15.02
2023-05-05T12:39:50.854Z,14.99
2023-05-05T12:42:18.690Z,14.97
2023-05-05T12:44:46.797Z,14.96
2023-05-05T12:47:14.614Z,14.94
2023-05-05T12:49:45.990Z,14.90
2023-05-05T12:52:14.449Z,14.88
2023-05-05T12:54:57.570Z,14.88
2023-05-05T12:57:25.402Z,14.88
2023-05-05T12:59:53.453Z,14.88
2023-05-05T13:02:21.211Z,14.88
2023-05-05T13:04:53.466Z,14.92
2023-05-05T13:07:22.019Z,15.01
2023-05-05T13:09:50.373Z,15.08
2023-05-05T13:12:18.489Z,15.11
2023-05-05T13:14:46.805Z,15.08
2023-05-05T13:17:14.613Z,15.04
2023-05-05T13:19:42.740Z,15.04
2023-05-05T13:22:10.326Z,15.02
2023-05-05T13:24:49.565Z,15.01
2023-05-05T13:27:19.764Z,15.05
2023-05-05T13:29:46.915Z,15.18
2023-05-05T13:32:14.082Z,15.35
2023-05-05T13:34:42.617Z,15.49
2023-05-05T13:37:09.889Z,15.47
2023-05-05T13:39:37.115Z,15.43
2023-05-05T13:42:04.297Z,15.44
2023-05-05T13:44:31.573Z,15.51
2023-05-05T13:46:58.849Z,15.61
2023-05-05T13:49:25.878Z,15.72
2023-05-05T13:51:52.954Z,15.83
2023-05-05T13:54:20.096Z,15.91
2023-05-05T13:56:47.290Z,15.98
2023-05-05T13:59:14.425Z,16.03
2023-05-05T14:01:41.618Z,16.11
2023-05-05T14:04:08.790Z,16.19
2023-05-05T14:06:36.294Z,16.27
2023-05-05T14:09:06.288Z,16.33
2023-05-05T14:11:33.859Z,16.36
2023-05-05T14:14:01.537Z,16.33
2023-05-05T14:16:28.683Z,16.23
2023-05-05T14:18:55.880Z,16.12
2023-05-05T14:21:22.976Z,15.99
2023-05-05T14:23:50.161Z,15.85
2023-05-05T14:26:17.327Z,15.70
2023-05-05T14:28:44.694Z,15.58
2023-05-05T14:31:12.145Z,15.47
2023-05-05T14:33:39.396Z,15.37
2023-05-05T14:36:06.824Z,15.28
2023-05-05T14:38:34.066Z,15.20
2023-05-05T14:41:01.535Z,15.14
2023-05-05T14:43:28.651Z,15.07
2023-05-05T14:45:58.294Z,15.02
2023-05-05T14:48:25.379Z,14.98
2023-05-05T14:50:52.486Z,14.95
2023-05-05T14:53:19.700Z,14.92
2023-05-05T14:55:46.822Z,14.88
2023-05-05T14:58:13.914Z,14.85
2023-05-05T15:00:41.083Z,14.83
2023-05-05T15:03:08.328Z,14.82
2023-05-05T15:05:35.748Z,14.82
2023-05-05T15:08:02.932Z,14.81
2023-05-05T15:10:30.008Z,14.80
2023-05-05T15:12:57.301Z,14.80
2023-05-05T15:15:24.497Z,14.79
2023-05-05T15:17:51.622Z,14.82
2023-05-05T15:20:18.958Z,14.83
2023-05-05T15:22:47.866Z,14.82
2023-05-05T15:25:16.339Z,14.82
2023-05-05T15:27:43.412Z,14.81
2023-05-05T15:30:11.940Z,14.81
2023-05-05T15:32:39.072Z,14.81
2023-05-05T15:35:06.995Z,14.79
2023-05-05T15:37:34.659Z,14.77
2023-05-05T15:40:01.880Z,14.76
2023-05-05T15:42:28.903Z,14.74
2023-05-05T15:44:56.029Z,14.72
2023-05-05T15:47:23.152Z,14.71
2023-05-05T15:49:50.227Z,14.69
2023-05-05T15:52:17.534Z,14.68
2023-05-05T15:54:44.768Z,14.68
2023-05-05T15:57:11.941Z,14.65
2023-05-05T15:59:39.044Z,14.62
2023-05-05T16:02:06.236Z,14.61
2023-05-05T16:04:33.372Z,14.59
2023-05-05T16:07:01.509Z,14.54
2023-05-05T16:09:28.614Z,14.48
2023-05-05T16:11:55.796Z,14.44
2023-05-05T16:14:22.982Z,14.39
2023-05-05T16:16:50.214Z,14.35
2023-05-05T16:19:18.202Z,14.30
2023-05-05T16:21:45.570Z,14.27
2023-05-05T16:24:16.463Z,14.24
2023-05-05T16:26:44.307Z,14.21
2023-05-05T16:29:12.275Z,14.19
2023-05-05T16:31:39.559Z,14.16
2023-05-05T16:34:07.262Z,14.14
2023-05-05T16:36:34.543Z,14.13
2023-05-05T16:39:01.806Z,14.13
2023-05-05T16:41:29.031Z,14.11
2023-05-05T16:43:56.414Z,14.09
2023-05-05T16:46:23.666Z,14.08
2023-05-05T16:48:50.845Z,14.05
2023-05-05T16:51:17.932Z,14.03
2023-05-05T16:53:45.514Z,14.00
2023-05-05T16:56:13.833Z,13.98
2023-05-05T16:58:41.041Z,13.94
2023-05-05T17:01:08.200Z,13.90
2023-05-05T17:03:36.044Z,13.86
2023-05-05T17:06:03.398Z,13.83
2023-05-05T17:08:30.788Z,13.79
2023-05-05T17:10:58.355Z,13.76
2023-05-05T17:13:25.451Z,13.72
2023-05-05T17:15:52.676Z,13.69
2023-05-05T17:18:21.888Z,13.65
2023-05-05T17:20:49.453Z,13.62
2023-05-05T17:23:16.794Z,13.58
2023-05-05T17:25:43.981Z,13.54
2023-05-05T17:28:11.089Z,13.49
2023-05-05T17:30:38.206Z,13.45
2023-05-05T17:33:05.515Z,13.40
2023-05-05T17:35:32.771Z,13.37
2023-05-05T17:37:59.895Z,13.35
2023-05-05T17:40:27.074Z,13.32
2023-05-05T17:42:54.087Z,13.30
2023-05-05T17:45:21.159Z,13.27
2023-05-05T17:47:48.343Z,13.23
2023-05-05T17:50:15.527Z,13.19
2023-05-05T17:52:43.965Z,13.17
2023-05-05T17:55:11.535Z,13.13
2023-05-05T17:57:38.917Z,13.09
2023-05-05T18:00:07.228Z,13.04
2023-05-05T18:02:40.052Z,12.99
2023-05-05T18:05:08.331Z,12.93
2023-05-05T18:07:35.663Z,12.88
2023-05-05T18:10:02.823Z,12.84
2023-05-05T18:12:29.971Z,12.80
2023-05-05T18:14:57.052Z,12.76
2023-05-05T18:17:24.144Z,12.73
2023-05-05T18:19:51.297Z,12.69
2023-05-05T18:22:18.361Z,12.65
2023-05-05T18:24:46.831Z,12.61
2023-05-05T18:27:13.992Z,12.56
2023-05-05T18:29:41.111Z,12.53
2023-05-05T18:32:08.258Z,12.49
2023-05-05T18:34:35.478Z,12.43
2023-05-05T18:37:02.537Z,12.41
2023-05-05T18:39:29.687Z,12.38
2023-05-05T18:41:56.916Z,12.36
2023-05-05T18:44:24.172Z,12.33
2023-05-05T18:46:51.597Z,12.31
2023-05-05T18:49:18.708Z,12.27
2023-05-05T18:51:45.774Z,12.25
2023-05-05T18:54:12.905Z,12.22
2023-05-05T18:56:40.062Z,12.20
2023-05-05T18:59:07.914Z,12.17
2023-05-05T19:01:35.000Z,12.15
2023-05-05T19:04:02.230Z,12.12
2023-05-05T19:06:29.438Z,12.09
2023-05-05T19:08:56.929Z,12.07
2023-05-05T19:11:24.795Z,12.04
2023-05-05T19:13:52.106Z,11.99
2023-05-05T19:16:19.306Z,11.96
2023-05-05T19:18:46.434Z,11.92
2023-05-05T19:21:13.828Z,11.88
2023-05-05T19:23:41.108Z,11.85
2023-05-05T19:26:08.274Z,11.81
2023-05-05T19:28:35.420Z,11.79
2023-05-05T19:31:02.543Z,11.77
2023-05-05T19:33:29.713Z,11.74
2023-05-05T19:35:56.793Z,11.71
2023-05-05T19:38:24.101Z,11.68
2023-05-05T19:40:51.218Z,11.66
2023-05-05T19:43:18.228Z,11.63
2023-05-05T19:45:45.277Z,11.59
2023-05-05T19:48:12.366Z,11.57
2023-05-05T19:50:39.534Z,11.54
2023-05-05T19:53:06.729Z,11.51
2023-05-05T19:55:33.847Z,11.48
2023-05-05T19:58:00.982Z,11.45
2023-05-05T20:00:28.168Z,11.42
2023-05-05T20:02:55.325Z,11.41
2023-05-05T20:05:22.548Z,11.39
2023-05-05T20:07:50.565Z,11.35
2023-05-05T20:10:17.990Z,11.32
2023-05-05T20:12:51.527Z,11.30
2023-05-05T20:15:20.714Z,11.27
2023-05-05T20:17:48.910Z,11.24
2023-05-05T20:20:22.040Z,11.21
2023-05-05T20:22:49.667Z,11.19
2023-05-05T20:25:17.133Z,11.17
2023-05-05T20:27:45.892Z,11.14
2023-05-05T20:30:13.506Z,11.12
2023-05-05T20:32:41.521Z,11.09
2023-05-05T20:35:09.357Z,11.07
2023-05-05T20:37:36.749Z,11.05
2023-05-05T20:40:04.162Z,11.04
2023-05-05T20:42:31.248Z,11.00
2023-05-05T20:45:03.309Z,10.96
2023-05-05T20:47:30.373Z,10.93
2023-05-05T20:49:57.691Z,10.92
2023-05-05T20:52:26.390Z,10.91
2023-05-05T20:54:53.376Z,10.90
2023-05-05T20:57:20.565Z,10.88
2023-05-05T20:59:49.387Z,10.85
2023-05-05T21:02:17.590Z,10.84
2023-05-05T21:04:45.759Z,10.83
2023-05-05T21:07:13.101Z,10.81
2023-05-05T21:09:47.329Z,10.77
2023-05-05T21:12:20.077Z,10.74
2023-05-05T21:14:47.212Z,10.71
2023-05-05T21:17:14.365Z,10.69
2023-05-05T21:19:41.517Z,10.67
2023-05-05T21:22:08.655Z,10.66
2023-05-05T21:24:35.703Z,10.64
2023-05-05T21:27:02.781Z,10.62
2023-05-05T21:29:34.334Z,10.62
2023-05-05T21:32:01.357Z,10.59
2023-05-05T21:34:28.482Z,10.57
2023-05-05T21:36:57.204Z,10.55
2023-05-05T21:39:24.475Z,10.53
2023-05-05T21:41:51.863Z,10.51
2023-05-05T21:44:19.017Z,10.48
2023-05-05T21:46:46.822Z,10.43
2023-05-05T21:49:16.031Z,10.39
2023-05-05T21:51:44.352Z,10.36
2023-05-05T21:54:11.537Z,10.36
2023-05-05T21:56:38.954Z,10.33
2023-05-05T21:59:06.395Z,10.31
2023-05-05T22:01:33.602Z,10.29
2023-05-05T22:04:01.024Z,10.29
2023-05-05T22:06:28.426Z,10.28
2023-05-05T22:08:57.092Z,10.24
2023-05-05T22:11:24.262Z,10.21
2023-05-05T22:13:51.947Z,10.20
2023-05-05T22:16:19.293Z,10.19
2023-05-05T22:18:46.939Z,10.19
2023-05-05T22:21:14.155Z,10.19
2023-05-05T22:23:44.444Z,10.19
2023-05-05T22:26:11.962Z,10.16
2023-05-05T22:28:39.117Z,10.15
2023-05-05T22:31:06.283Z,10.13
2023-05-05T22:33:33.300Z,10.11
2023-05-05T22:36:00.825Z,10.08
2023-05-05T22:38:27.835Z,10.05
2023-05-05T22:40:57.399Z,10.04
2023-05-05T22:43:25.398Z,9.99
2023-05-05T22:45:52.763Z,9.95
2023-05-05T22:48:19.811Z,9.93
2023-05-05T22:50:47.071Z,9.91
2023-05-05T22:53:14.164Z,9.88
2023-05-05T22:55:41.266Z,9.84
2023-05-05T22:58:08.413Z,9.82
2023-05-05T23:00:35.846Z,9.79
2023-05-05T23:03:02.996Z,9.77
2023-05-05T23:05:30.450Z,9.75
2023-05-05T23:08:00.002Z,9.72
2023-05-05T23:10:27.750Z,9.70
2023-05-05T23:12:54.871Z,9.67
2023-05-05T23:15:22.028Z,9.65
2023-05-05T23:17:49.133Z,9.62
2023-05-05T23:20:16.415Z,9.61
2023-05-05T23:22:43.495Z,9.58
2023-05-05T23:25:10.873Z,9.57
2023-05-05T23:27:40.043Z,9.54
2023-05-05T23:30:08.776Z,9.52
2023-05-05T23:32:35.987Z,9.49
2023-05-05T23:35:03.156Z,9.46
2023-05-05T23:37:30.257Z,9.42
2023-05-05T23:39:57.316Z,9.41
2023-05-05T23:42:24.690Z,9.38
2023-05-05T23:44:51.866Z,9.36
2023-05-05T23:47:18.998Z,9.35
2023-05-05T23:49:46.448Z,9.34
2023-05-05T23:52:13.596Z,9.32
2023-05-05T23:54:41.023Z,9.32
2023-05-05T23:57:08.144Z,9.31
2023-05-05T23:59:35.251Z,9.29
